Time;durP1;ratioP1;P1;durP2;ratioP2;P2;SDS_P1;SDS_P2;PMS_P1;PMS_P2;Temp;Humidity;BMP_temperature;BMP_pressure;BME280_temperature;BME280_humidity;BME280_pressure;Samples;Min_cycle;Max_cycle;Signal;HPM_P1;HPM_P2
2023/11/08 00:02:20;;;;;;;1.52;1.23;;;10.80;84.20;;;;;;5062410;28;20045;-63
2023/11/08 00:04:46;;;;;;;2.00;1.38;;;10.80;84.20;;;;;;5062953;28;20107;-64
2023/11/08 00:07:12;;;;;;;2.92;1.98;;;10.80;84.30;;;;;;5066066;28;20112;-64
2023/11/08 00:09:37;;;;;;;4.68;1.48;;;10.80;84.20;;;;;;5064234;28;20040;-64
2023/11/08 00:12:04;;;;;;;4.97;2.05;;;10.80;84.20;;;;;;5058681;28;20033;-64
2023/11/08 00:14:30;;;;;;;1.58;1.48;;;10.70;84.30;;;;;;5071002;28;20033;-64
2023/11/08 00:16:58;;;;;;;3.40;1.48;;;10.70;84.50;;;;;;5065621;28;20025;-64
2023/11/08 00:19:25;;;;;;;3.25;1.70;;;10.70;84.70;;;;;;5064378;28;20058;-64
2023/11/08 00:21:51;;;;;;;2.30;1.45;;;10.60;84.60;;;;;;5059288;28;20021;-63
2023/11/08 00:24:18;;;;;;;1.60;1.45;;;10.70;84.60;;;;;;5041862;28;20044;-63
2023/11/08 00:26:44;;;;;;;1.52;1.42;;;10.70;84.50;;;;;;5060955;28;20029;-64
2023/11/08 00:29:10;;;;;;;2.05;1.52;;;10.60;84.60;;;;;;5062072;28;20021;-63
2023/11/08 00:31:36;;;;;;;3.00;1.85;;;10.60;84.60;;;;;;5070883;28;20111;-63
2023/11/08 00:34:01;;;;;;;2.13;1.92;;;10.70;84.60;;;;;;5065809;28;20516;-63
2023/11/08 00:36:27;;;;;;;2.58;1.58;;;10.70;84.60;;;;;;5065338;28;20040;-63
2023/11/08 00:38:53;;;;;;;1.70;1.15;;;10.60;84.70;;;;;;5071243;28;20472;-63
2023/11/08 00:41:19;;;;;;;3.15;1.38;;;10.60;84.90;;;;;;5059610;28;20476;-63
2023/11/08 00:43:44;;;;;;;1.83;1.20;;;10.60;84.90;;;;;;5061364;28;20500;-63
2023/11/08 00:46:10;;;;;;;3.22;1.60;;;10.50;84.90;;;;;;5047099;28;20021;-64
2023/11/08 00:48:36;;;;;;;2.60;1.67;;;10.60;85.00;;;;;;5067200;28;20025;-64
2023/11/08 00:51:03;;;;;;;2.28;1.42;;;10.60;84.90;;;;;;5070154;28;20111;-64
2023/11/08 00:53:28;;;;;;;3.13;1.48;;;10.60;84.90;;;;;;5069826;28;20078;-63
2023/11/08 00:55:55;;;;;;;1.73;1.63;;;10.60;84.90;;;;;;5067149;28;20477;-63
2023/11/08 00:58:21;;;;;;;6.82;1.88;;;10.60;85.10;;;;;;5071356;28;20481;-63
2023/11/08 01:00:49;;;;;;;1.23;1.13;;;10.50;85.20;;;;;;5069228;28;20048;-64
2023/11/08 01:03:16;;;;;;;1.08;0.95;;;10.60;85.30;;;;;;5067005;28;20032;-64
2023/11/08 01:05:42;;;;;;;2.58;1.63;;;10.60;85.20;;;;;;5046896;28;20492;-64
2023/11/08 01:08:08;;;;;;;1.35;1.13;;;10.60;85.10;;;;;;5063777;28;20111;-63
2023/11/08 01:10:33;;;;;;;1.83;1.35;;;10.60;85.10;;;;;;5065214;28;20123;-64
2023/11/08 01:12:59;;;;;;;3.03;1.60;;;10.60;85.20;;;;;;5048824;28;20032;-63
2023/11/08 01:15:25;;;;;;;1.95;1.45;;;10.60;85.20;;;;;;5059615;28;20056;-63
2023/11/08 01:17:51;;;;;;;2.22;1.30;;;10.50;85.30;;;;;;5065179;28;20500;-63
2023/11/08 01:20:17;;;;;;;1.80;1.40;;;10.50;85.30;;;;;;5063672;28;20116;-63
2023/11/08 01:22:42;;;;;;;1.67;1.27;;;10.50;85.40;;;;;;5040737;28;20055;-63
2023/11/08 01:25:12;;;;;;;2.22;1.38;;;10.60;85.40;;;;;;5066365;28;20028;-63
2023/11/08 01:27:38;;;;;;;2.08;1.42;;;10.60;85.20;;;;;;5064937;28;20028;-63
2023/11/08 01:30:05;;;;;;;1.75;1.30;;;10.60;85.10;;;;;;5067696;28;20032;-63
2023/11/08 01:32:31;;;;;;;1.33;1.23;;;10.70;85.50;;;;;;5058926;28;20043;-63
2023/11/08 01:34:59;;;;;;;2.92;1.20;;;10.70;85.10;;;;;;5049047;28;20401;-63
2023/11/08 01:37:25;;;;;;;1.45;0.90;;;10.70;85.10;;;;;;5062305;28;20026;-64
2023/11/08 01:39:51;;;;;;;3.00;1.38;;;10.80;85.00;;;;;;5064269;28;20032;-63
2023/11/08 01:42:20;;;;;;;4.72;1.23;;;10.80;84.90;;;;;;5061392;28;20108;-63
2023/11/08 01:44:46;;;;;;;3.10;1.65;;;10.70;84.90;;;;;;5058772;28;20821;-63
2023/11/08 01:47:14;;;;;;;1.98;1.50;;;10.70;85.10;;;;;;5062394;28;20108;-63
2023/11/08 01:49:40;;;;;;;3.78;1.52;;;10.70;85.20;;;;;;5057897;28;20441;-63
2023/11/08 01:52:06;;;;;;;3.13;1.90;;;10.70;85.20;;;;;;5061355;28;20028;-63
2023/11/08 01:54:33;;;;;;;2.05;1.38;;;10.70;85.30;;;;;;5059101;28;20024;-64
2023/11/08 01:57:01;;;;;;;4.03;1.92;;;10.70;85.40;;;;;;5040656;28;20054;-64
2023/11/08 01:59:28;;;;;;;6.10;1.33;;;10.70;85.50;;;;;;5051850;28;20047;-64
2023/11/08 02:01:57;;;;;;;1.52;1.30;;;10.70;85.40;;;;;;5066549;28;20056;-64
2023/11/08 02:04:24;;;;;;;1.30;1.13;;;10.80;85.20;;;;;;5065570;28;20468;-64
2023/11/08 02:06:50;;;;;;;2.10;1.58;;;10.90;85.10;;;;;;5063779;28;20504;-64
2023/11/08 02:09:16;;;;;;;1.85;1.30;;;10.90;85.00;;;;;;5063922;28;20024;-64
2023/11/08 02:11:44;;;;;;;2.80;1.50;;;10.90;85.00;;;;;;5069853;28;20033;-64
2023/11/08 02:14:09;;;;;;;2.55;1.67;;;10.90;85.00;;;;;;5062103;28;20040;-63
2023/11/08 02:16:36;;;;;;;3.45;1.92;;;10.90;85.00;;;;;;5069217;28;20048;-63
2023/11/08 02:19:03;;;;;;;5.78;1.77;;;10.80;85.10;;;;;;5067952;28;20079;-64
2023/11/08 02:21:29;;;;;;;2.45;1.77;;;10.80;85.30;;;;;;5064063;28;20033;-64
2023/11/08 02:23:55;;;;;;;1.95;1.38;;;10.80;85.40;;;;;;5061004;28;20032;-64
2023/11/08 02:26:21;;;;;;;2.78;2.20;;;10.80;85.60;;;;;;5048943;28;20027;-64
2023/11/08 02:28:47;;;;;;;2.50;1.60;;;10.70;85.60;;;;;;5042353;28;20485;-63
2023/11/08 02:31:13;;;;;;;2.75;1.80;;;10.80;85.60;;;;;;5063020;28;20357;-63
2023/11/08 02:33:40;;;;;;;2.60;1.40;;;10.80;85.40;;;;;;5063812;28;20324;-64
2023/11/08 02:36:06;;;;;;;2.72;1.55;;;10.80;85.40;;;;;;5067296;28;20086;-63
2023/11/08 02:38:32;;;;;;;3.75;1.85;;;10.80;85.60;;;;;;5041633;28;20029;-64
2023/11/08 02:40:57;;;;;;;2.25;1.92;;;10.80;85.60;;;;;;5061259;28;20037;-64
2023/11/08 02:43:25;;;;;;;1.90;1.27;;;10.80;85.50;;;;;;5066055;28;20021;-64
2023/11/08 02:45:52;;;;;;;4.38;1.17;;;10.80;85.50;;;;;;5048975;28;20028;-64
2023/11/08 02:48:17;;;;;;;2.63;1.48;;;10.90;85.50;;;;;;5070520;28;20090;-64
2023/11/08 02:50:44;;;;;;;2.22;1.42;;;10.80;85.50;;;;;;5043559;28;20036;-64
2023/11/08 02:53:10;;;;;;;6.47;1.75;;;10.90;85.30;;;;;;5069459;28;20127;-64
2023/11/08 02:55:37;;;;;;;2.20;1.60;;;10.90;85.30;;;;;;5060449;28;20111;-64
2023/11/08 02:58:03;;;;;;;2.08;1.58;;;10.90;85.30;;;;;;5069957;28;20032;-64
2023/11/08 03:00:30;;;;;;;1.75;1.42;;;10.90;85.30;;;;;;5059177;28;20414;-63
2023/11/08 03:02:55;;;;;;;2.95;2.20;;;10.90;85.30;;;;;;5061611;28;20036;-63
2023/11/08 03:05:22;;;;;;;7.63;2.38;;;10.90;85.20;;;;;;5061583;28;20028;-63
2023/11/08 03:07:50;;;;;;;4.22;1.85;;;10.80;85.30;;;;;;5061990;28;20052;-63
2023/11/08 03:10:17;;;;;;;1.63;1.52;;;10.80;85.30;;;;;;5061247;28;20028;-64
2023/11/08 03:12:45;;;;;;;3.22;2.22;;;10.80;85.40;;;;;;5065154;28;20374;-63
2023/11/08 03:15:11;;;;;;;3.85;1.90;;;10.80;85.30;;;;;;5059404;28;20036;-64
2023/11/08 03:17:40;;;;;;;1.80;1.25;;;10.80;85.40;;;;;;5050628;28;20032;-64
2023/11/08 03:20:08;;;;;;;2.25;1.88;;;10.80;85.40;;;;;;5065663;28;20109;-64
2023/11/08 03:22:35;;;;;;;4.57;2.28;;;10.80;85.60;;;;;;5061423;28;20086;-64
2023/11/08 03:25:04;;;;;;;3.88;1.83;;;10.70;85.50;;;;;;5055269;28;20021;-64
2023/11/08 03:27:29;;;;;;;4.65;2.33;;;10.70;85.60;;;;;;5045692;28;20036;-64
2023/11/08 03:29:55;;;;;;;5.20;2.28;;;10.60;85.80;;;;;;5067510;28;20017;-64
2023/11/08 03:32:22;;;;;;;3.25;2.15;;;10.60;85.90;;;;;;5058433;28;20029;-63
2023/11/08 03:34:48;;;;;;;5.82;1.90;;;10.60;85.90;;;;;;5064632;28;20052;-63
2023/11/08 03:37:14;;;;;;;5.25;1.83;;;10.60;85.90;;;;;;5049732;28;20029;-63
2023/11/08 03:39:39;;;;;;;3.55;2.08;;;10.60;85.80;;;;;;5069958;28;20040;-63
2023/11/08 03:42:05;;;;;;;2.92;1.80;;;10.70;85.80;;;;;;5061952;28;20037;-63
2023/11/08 03:44:31;;;;;;;2.83;1.73;;;10.70;85.80;;;;;;5065038;28;20108;-63
2023/11/08 03:46:57;;;;;;;3.22;1.88;;;10.70;85.80;;;;;;5067697;28;20060;-63
2023/11/08 03:49:23;;;;;;;4.78;1.73;;;10.70;85.70;;;;;;5068786;28;20422;-63
2023/11/08 03:51:48;;;;;;;3.05;1.60;;;10.60;85.80;;;;;;5066755;28;20057;-63
2023/11/08 03:54:14;;;;;;;2.38;1.90;;;10.70;85.90;;;;;;5044298;28;20050;-63
2023/11/08 03:56:40;;;;;;;3.40;1.67;;;10.70;85.90;;;;;;5068455;28;20124;-63
2023/11/08 03:59:06;;;;;;;2.15;1.65;;;10.70;85.80;;;;;;5043191;28;20033;-63
2023/11/08 04:01:31;;;;;;;2.85;2.03;;;10.70;85.80;;;;;;5068366;28;20040;-63
2023/11/08 04:03:57;;;;;;;5.22;2.22;;;10.70;85.90;;;;;;5063865;28;20048;-63
2023/11/08 04:06:23;;;;;;;3.00;1.48;;;10.70;85.90;;;;;;5058753;28;20029;-63
2023/11/08 04:08:49;;;;;;;2.13;1.67;;;10.70;85.90;;;;;;5064646;28;20495;-63
2023/11/08 04:11:14;;;;;;;2.50;1.90;;;10.60;85.90;;;;;;5062984;28;20055;-63
2023/11/08 04:13:40;;;;;;;2.30;1.48;;;10.60;86.00;;;;;;5062574;28;20047;-63
2023/11/08 04:16:06;;;;;;;2.00;1.63;;;10.60;85.90;;;;;;5043013;28;20469;-63
2023/11/08 04:18:33;;;;;;;2.05;1.23;;;10.60;85.90;;;;;;5070041;28;20037;-63
2023/11/08 04:20:59;;;;;;;2.80;1.73;;;10.60;85.90;;;;;;5067801;28;20040;-63
2023/11/08 04:23:25;;;;;;;4.00;1.35;;;10.70;86.00;;;;;;5061633;28;20025;-63
2023/11/08 04:25:51;;;;;;;6.03;1.85;;;10.70;85.90;;;;;;5063756;28;20032;-63
2023/11/08 04:28:20;;;;;;;1.20;1.10;;;10.70;85.80;;;;;;5069848;28;20031;-63
2023/11/08 04:30:46;;;;;;;1.90;1.52;;;10.70;85.80;;;;;;5068267;28;20378;-63
2023/11/08 04:33:12;;;;;;;2.50;1.45;;;10.70;85.80;;;;;;5059544;28;20032;-63
2023/11/08 04:35:38;;;;;;;3.42;1.75;;;10.70;85.70;;;;;;5048944;28;20024;-63
2023/11/08 04:38:04;;;;;;;3.65;1.25;;;10.70;85.70;;;;;;5067392;28;20032;-64
2023/11/08 04:40:30;;;;;;;1.88;1.48;;;10.60;85.60;;;;;;5065588;28;20097;-64
2023/11/08 04:42:56;;;;;;;4.35;1.20;;;10.60;85.70;;;;;;5068874;28;20111;-64
2023/11/08 04:45:22;;;;;;;3.45;1.33;;;10.60;85.80;;;;;;5070274;28;20044;-64
2023/11/08 04:47:48;;;;;;;6.95;2.20;;;10.60;85.80;;;;;;5041770;28;20532;-63
2023/11/08 04:50:14;;;;;;;3.47;2.13;;;10.60;85.70;;;;;;5065399;28;20443;-63
2023/11/08 04:52:39;;;;;;;3.95;1.67;;;10.60;85.80;;;;;;5066280;28;20095;-64
2023/11/08 04:55:05;;;;;;;5.13;1.60;;;10.60;85.80;;;;;;5070088;28;20089;-64
2023/11/08 04:57:32;;;;;;;3.47;1.33;;;10.60;85.90;;;;;;5068226;28;20519;-64
2023/11/08 04:59:57;;;;;;;1.55;1.30;;;10.60;86.00;;;;;;5067816;28;20047;-63
2023/11/08 05:02:23;;;;;;;3.10;1.23;;;10.60;86.00;;;;;;5051253;28;20044;-63
2023/11/08 05:04:49;;;;;;;3.03;0.93;;;10.60;85.90;;;;;;5067208;28;20082;-64
2023/11/08 05:07:15;;;;;;;3.00;1.40;;;10.60;85.80;;;;;;5068365;28;20472;-64
2023/11/08 05:09:43;;;;;;;2.70;1.17;;;10.60;85.70;;;;;;5065558;28;20112;-64
2023/11/08 05:12:10;;;;;;;2.92;1.55;;;10.60;85.70;;;;;;5058989;28;20040;-64
2023/11/08 05:14:36;;;;;;;3.15;1.55;;;10.60;85.60;;;;;;5070871;28;20516;-63
2023/11/08 05:17:03;;;;;;;2.53;1.33;;;10.60;85.70;;;;;;5063721;28;20025;-63
2023/11/08 05:19:29;;;;;;;4.95;1.33;;;10.60;85.70;;;;;;5068146;28;20131;-63
2023/11/08 05:21:55;;;;;;;1.48;1.23;;;10.60;85.60;;;;;;5064764;28;20125;-63
2023/11/08 05:24:22;;;;;;;3.05;1.10;;;10.60;85.70;;;;;;5059165;28;20120;-63
2023/11/08 05:26:53;;;;;;;2.90;1.52;;;10.60;85.60;;;;;;5041698;28;20036;-64
2023/11/08 05:29:23;;;;;;;;;;;10.60;85.60;;;;;;5026394;28;20028;-63
2023/11/08 05:31:49;;;;;;;1.73;1.20;;;10.60;85.60;;;;;;5048217;28;19936;-63
2023/11/08 05:34:15;;;;;;;0.70;0.68;;;10.50;85.60;;;;;;5063039;28;20344;-63
2023/11/08 05:36:41;;;;;;;2.95;1.85;;;10.50;85.50;;;;;;5051138;28;20040;-63
2023/11/08 05:39:07;;;;;;;5.07;1.48;;;10.60;85.40;;;;;;5060481;28;20102;-64
2023/11/08 05:41:32;;;;;;;2.22;1.63;;;10.50;85.30;;;;;;5066484;28;20125;-64
2023/11/08 05:43:59;;;;;;;1.40;1.20;;;10.50;85.40;;;;;;5062780;28;20454;-64
2023/11/08 05:46:25;;;;;;;2.03;1.13;;;10.40;85.50;;;;;;5067016;28;20466;-64
2023/11/08 05:48:51;;;;;;;4.22;1.65;;;10.40;85.50;;;;;;5060335;28;20040;-64
2023/11/08 05:51:17;;;;;;;12.45;1.85;;;10.50;85.40;;;;;;5067351;28;20046;-64
2023/11/08 05:53:42;;;;;;;1.88;1.17;;;10.50;85.40;;;;;;5045815;28;20028;-63
2023/11/08 05:56:08;;;;;;;3.40;1.60;;;10.50;85.40;;;;;;5048057;28;20119;-63
2023/11/08 05:58:37;;;;;;;2.22;1.40;;;10.50;85.30;;;;;;5064980;28;20091;-64
2023/11/08 06:01:04;;;;;;;4.35;1.30;;;10.50;85.30;;;;;;5065566;28;20094;-65
2023/11/08 06:03:30;;;;;;;3.70;1.55;;;10.50;85.20;;;;;;5068564;28;20546;-65
2023/11/08 06:05:56;;;;;;;2.35;1.27;;;10.50;85.20;;;;;;5065555;28;20032;-63
2023/11/08 06:08:22;;;;;;;1.48;1.15;;;10.40;85.10;;;;;;5039254;28;20029;-63
2023/11/08 06:10:49;;;;;;;1.05;0.90;;;10.40;85.10;;;;;;5063384;28;20028;-64
2023/11/08 06:13:15;;;;;;;3.60;1.02;;;10.40;85.20;;;;;;5066893;28;20510;-63
2023/11/08 06:15:41;;;;;;;1.98;1.17;;;10.40;85.10;;;;;;5066306;28;20108;-63
2023/11/08 06:18:08;;;;;;;2.67;1.75;;;10.40;85.10;;;;;;5042529;28;20124;-63
2023/11/08 06:20:35;;;;;;;1.02;0.93;;;10.50;85.10;;;;;;5065588;28;20037;-64
2023/11/08 06:23:02;;;;;;;1.83;1.17;;;10.50;84.90;;;;;;5042338;28;20029;-63
2023/11/08 06:25:33;;;;;;;2.28;1.13;;;10.50;84.80;;;;;;5055670;28;20025;-64
2023/11/08 06:28:00;;;;;;;2.20;1.15;;;10.50;84.70;;;;;;5031313;28;20068;-65
2023/11/08 06:30:26;;;;;;;1.52;1.00;;;10.50;84.60;;;;;;5058651;28;20032;-64
2023/11/08 06:32:52;;;;;;;1.10;0.82;;;10.40;84.50;;;;;;5046881;28;20451;-65
2023/11/08 06:35:18;;;;;;;4.82;1.00;;;10.40;84.60;;;;;;5062476;28;20036;-64
2023/11/08 06:37:43;;;;;;;3.90;1.00;;;10.30;84.70;;;;;;5037114;28;20508;-64
2023/11/08 06:40:10;;;;;;;0.75;0.60;;;10.30;84.80;;;;;;5040353;28;20119;-63
2023/11/08 06:42:37;;;;;;;1.75;0.88;;;10.30;84.70;;;;;;5066118;28;20138;-63
2023/11/08 06:45:04;;;;;;;9.88;0.95;;;10.20;84.80;;;;;;5060234;28;20029;-63
2023/11/08 06:47:30;;;;;;;1.80;0.93;;;10.20;84.80;;;;;;5056753;28;20029;-63
2023/11/08 06:49:56;;;;;;;1.08;0.98;;;10.30;84.80;;;;;;5063005;28;20408;-63
2023/11/08 06:52:25;;;;;;;2.53;0.77;;;10.30;84.90;;;;;;5032409;28;20036;-63
2023/11/08 06:54:51;;;;;;;1.48;0.80;;;10.30;84.70;;;;;;5056352;28;20017;-63
2023/11/08 06:57:17;;;;;;;1.33;0.90;;;10.20;84.60;;;;;;5046411;28;20025;-64
2023/11/08 06:59:43;;;;;;;1.10;0.82;;;10.20;84.70;;;;;;5066497;28;20137;-64
2023/11/08 07:02:09;;;;;;;1.73;1.00;;;10.20;84.60;;;;;;5036731;28;20044;-64
2023/11/08 07:04:35;;;;;;;1.95;1.27;;;10.20;84.50;;;;;;5058069;28;20029;-64
2023/11/08 07:07:01;;;;;;;0.50;0.43;;;10.20;84.60;;;;;;5041399;28;20035;-64
2023/11/08 07:09:29;;;;;;;2.53;1.30;;;10.20;84.60;;;;;;5062961;28;20020;-64
2023/11/08 07:11:55;;;;;;;2.35;0.90;;;10.10;84.70;;;;;;5056076;28;20032;-64
2023/11/08 07:14:21;;;;;;;4.45;1.17;;;10.10;84.80;;;;;;5054771;28;20025;-64
2023/11/08 07:16:47;;;;;;;3.45;0.90;;;10.10;84.70;;;;;;5068852;28;20039;-65
2023/11/08 07:19:12;;;;;;;1.52;1.17;;;10.10;84.70;;;;;;5068332;28;20769;-64
2023/11/08 07:21:39;;;;;;;1.58;0.73;;;10.10;84.80;;;;;;5058325;28;20049;-65
2023/11/08 07:24:09;;;;;;;1.35;0.70;;;10.10;84.70;;;;;;5064020;28;20108;-65
2023/11/08 07:26:35;;;;;;;0.55;0.55;;;10.10;84.70;;;;;;5064639;28;20039;-64
2023/11/08 07:29:04;;;;;;;2.05;1.17;;;10.10;84.70;;;;;;5060917;28;20037;-64
2023/11/08 07:31:33;;;;;;;3.58;1.17;;;10.10;84.80;;;;;;5062045;28;20057;-64
2023/11/08 07:34:02;;;;;;;3.20;1.25;;;10.10;84.70;;;;;;5060872;28;20033;-65
2023/11/08 07:36:29;;;;;;;2.95;1.10;;;10.10;84.60;;;;;;5060540;28;20059;-64
2023/11/08 07:38:56;;;;;;;1.73;0.80;;;10.10;84.40;;;;;;5062610;28;20032;-63
2023/11/08 07:41:22;;;;;;;1.08;0.95;;;10.10;84.50;;;;;;5066332;28;20482;-64
2023/11/08 07:43:48;;;;;;;3.38;0.98;;;10.10;84.50;;;;;;5063378;28;20036;-64
2023/11/08 07:46:14;;;;;;;0.77;0.77;;;10.10;84.40;;;;;;5046115;28;20123;-63
2023/11/08 07:48:39;;;;;;;1.00;0.88;;;10.10;84.50;;;;;;5066010;28;20037;-64
2023/11/08 07:51:08;;;;;;;0.82;0.50;;;10.10;84.40;;;;;;5063863;28;20037;-64
2023/11/08 07:53:34;;;;;;;0.68;0.50;;;10.10;84.30;;;;;;5063232;28;20127;-63
2023/11/08 07:56:00;;;;;;;1.17;0.80;;;10.20;84.30;;;;;;5064994;28;20116;-63
2023/11/08 07:58:26;;;;;;;2.70;1.45;;;10.20;83.90;;;;;;5068603;28;20047;-63
2023/11/08 08:00:52;;;;;;;2.05;1.02;;;10.10;83.90;;;;;;5062416;28;20045;-63
2023/11/08 08:03:19;;;;;;;4.30;1.15;;;10.00;84.00;;;;;;5058962;28;20392;-64
2023/11/08 08:05:45;;;;;;;1.67;0.65;;;10.00;84.20;;;;;;5046371;28;20067;-65
2023/11/08 08:08:14;;;;;;;1.00;0.85;;;10.00;84.40;;;;;;5064607;28;20056;-65
2023/11/08 08:10:44;;;;;;;0.43;0.43;;;10.00;84.40;;;;;;5065316;28;20119;-64
2023/11/08 08:13:10;;;;;;;0.60;0.55;;;10.10;84.30;;;;;;5062557;28;20539;-62
2023/11/08 08:15:36;;;;;;;0.88;0.63;;;10.20;84.10;;;;;;5058828;28;20025;-63
2023/11/08 08:18:02;;;;;;;3.15;1.15;;;10.10;83.80;;;;;;5061961;28;20028;-64
2023/11/08 08:20:28;;;;;;;0.82;0.77;;;10.20;83.80;;;;;;5062188;28;20037;-64
2023/11/08 08:22:55;;;;;;;1.80;0.88;;;10.20;83.90;;;;;;5047727;28;20025;-63
2023/11/08 08:25:24;;;;;;;1.23;0.98;;;10.20;84.00;;;;;;5048007;28;20020;-63
2023/11/08 08:27:50;;;;;;;2.15;0.85;;;10.30;83.80;;;;;;5070560;28;20032;-63
2023/11/08 08:30:16;;;;;;;1.00;0.90;;;10.40;83.70;;;;;;5063356;28;20040;-67
2023/11/08 08:32:45;;;;;;;1.85;0.82;;;10.40;83.30;;;;;;5067434;28;20478;-65
2023/11/08 08:35:11;;;;;;;1.92;1.25;;;10.40;83.30;;;;;;5070839;28;20029;-63
2023/11/08 08:37:37;;;;;;;2.30;1.05;;;10.50;83.30;;;;;;5059179;28;20037;-66
2023/11/08 08:40:10;;;;;;;1.60;1.02;;;10.60;83.10;;;;;;5069584;28;20362;-65
2023/11/08 08:42:37;;;;;;;3.08;1.38;;;10.60;83.00;;;;;;5068068;28;20397;-65
2023/11/08 08:45:03;;;;;;;2.55;1.35;;;10.70;82.90;;;;;;5064019;28;20025;-63
2023/11/08 08:47:29;;;;;;;3.92;1.40;;;10.70;82.40;;;;;;5060213;28;20033;-64
2023/11/08 08:49:57;;;;;;;3.70;1.30;;;10.70;82.30;;;;;;5044710;28;20110;-62
2023/11/08 08:52:23;;;;;;;1.17;1.00;;;10.70;82.40;;;;;;5057569;28;20555;-63
2023/11/08 08:54:49;;;;;;;3.00;1.45;;;10.60;82.30;;;;;;5040306;28;20048;-63
2023/11/08 08:57:15;;;;;;;1.80;1.27;;;10.60;82.60;;;;;;5038691;28;20040;-63
2023/11/08 08:59:41;;;;;;;3.58;1.35;;;10.60;82.60;;;;;;5060138;28;20466;-65
2023/11/08 09:02:07;;;;;;;4.80;1.10;;;10.60;82.70;;;;;;5053904;28;20146;-65
2023/11/08 09:04:33;;;;;;;1.65;1.13;;;10.70;82.80;;;;;;5032743;28;20434;-65
2023/11/08 09:07:00;;;;;;;3.88;1.50;;;10.90;82.60;;;;;;5058358;28;20087;-66
2023/11/08 09:09:25;;;;;;;1.73;0.93;;;11.10;82.30;;;;;;5064013;28;20028;-65
2023/11/08 09:11:51;;;;;;;4.25;1.40;;;11.30;82.00;;;;;;5066677;28;20036;-65
2023/11/08 09:14:18;;;;;;;3.38;1.55;;;11.60;81.10;;;;;;5060478;28;20070;-66
2023/11/08 09:16:44;;;;;;;5.75;1.38;;;11.60;80.80;;;;;;5064548;28;20110;-65
2023/11/08 09:19:10;;;;;;;3.40;1.13;;;11.60;80.30;;;;;;5040248;28;20013;-65
2023/11/08 09:21:36;;;;;;;1.92;1.17;;;11.50;80.30;;;;;;5061546;28;20477;-65
2023/11/08 09:24:06;;;;;;;1.40;0.75;;;11.50;80.70;;;;;;5059587;28;20543;-65
2023/11/08 09:26:40;;;;;;;1.85;1.27;;;11.50;81.00;;;;;;5059621;28;20029;-65
2023/11/08 09:29:06;;;;;;;1.08;0.98;;;11.60;80.90;;;;;;5063350;28;20147;-65
2023/11/08 09:31:32;;;;;;;3.95;1.70;;;11.60;80.90;;;;;;5066287;28;20434;-65
2023/11/08 09:33:59;;;;;;;2.15;1.02;;;11.70;80.80;;;;;;5043261;28;20489;-65
2023/11/08 09:36:26;;;;;;;4.60;1.25;;;11.80;80.50;;;;;;5044570;28;20079;-63
2023/11/08 09:38:52;;;;;;;2.42;1.42;;;12.00;80.00;;;;;;5060900;28;20037;-63
2023/11/08 09:41:19;;;;;;;2.10;1.17;;;12.00;79.40;;;;;;5064026;28;20036;-63
2023/11/08 09:43:48;;;;;;;5.35;1.58;;;12.10;79.40;;;;;;5047787;28;20036;-63
2023/11/08 09:46:16;;;;;;;3.67;1.55;;;12.20;79.10;;;;;;5054131;28;20397;-63
2023/11/08 09:48:45;;;;;;;8.23;1.60;;;12.20;78.70;;;;;;5056827;28;20574;-65
2023/11/08 09:51:17;;;;;;;2.25;1.33;;;12.10;79.00;;;;;;5055978;28;20041;-65
2023/11/08 09:53:43;;;;;;;7.13;1.73;;;12.20;78.80;;;;;;5057540;28;20526;-65
2023/11/08 09:56:11;;;;;;;1.52;1.25;;;12.20;78.60;;;;;;5021274;28;20034;-65
2023/11/08 09:58:41;;;;;;;4.97;1.20;;;12.20;79.00;;;;;;5049852;28;20039;-67
2023/11/08 10:01:13;;;;;;;3.17;1.45;;;12.20;79.00;;;;;;5059609;28;20408;-65
2023/11/08 10:03:41;;;;;;;3.08;1.30;;;12.20;78.90;;;;;;5059807;28;20044;-65
2023/11/08 10:06:08;;;;;;;1.63;0.82;;;12.20;79.60;;;;;;5053596;28;20024;-65
2023/11/08 10:08:33;;;;;;;2.42;1.60;;;12.50;79.20;;;;;;5037110;28;20021;-63
2023/11/08 10:11:00;;;;;;;11.57;1.67;;;12.60;78.20;;;;;;5062767;28;20408;-65
2023/11/08 10:13:48;;;;;;;2.85;1.30;;;12.80;78.00;;;;;;5057079;28;20115;-65
2023/11/08 10:16:15;;;;;;;2.30;1.52;;;12.90;77.30;;;;;;5066872;28;20036;-64
2023/11/08 10:18:42;;;;;;;4.22;1.60;;;12.80;77.00;;;;;;5069319;28;20477;-65
2023/11/08 10:21:18;;;;;;;3.38;1.25;;;12.90;77.00;;;;;;5058380;28;20037;-65
2023/11/08 10:23:44;;;;;;;3.42;1.55;;;12.90;77.00;;;;;;5057954;28;20037;-65
2023/11/08 10:26:16;;;;;;;4.90;1.80;;;13.00;76.40;;;;;;5047457;28;20760;-66
2023/11/08 10:28:57;;;;;;;2.50;0.93;;;12.80;76.40;;;;;;5059093;28;20028;-66
2023/11/08 10:31:42;;;;;;;2.22;0.90;;;12.80;76.60;;;;;;5064142;28;20021;-63
2023/11/08 10:34:11;;;;;;;1.40;1.10;;;12.80;76.80;;;;;;5059759;28;20595;-63
2023/11/08 10:36:38;;;;;;;2.08;1.25;;;12.80;76.30;;;;;;5059823;28;20025;-63
2023/11/08 10:39:19;;;;;;;1.15;1.05;;;12.80;76.10;;;;;;5043662;28;20032;-65
2023/11/08 10:41:47;;;;;;;2.50;1.30;;;12.80;76.00;;;;;;5041469;28;20685;-65
2023/11/08 10:44:15;;;;;;;9.48;1.50;;;12.80;75.40;;;;;;5062687;28;20025;-67
2023/11/08 10:46:42;;;;;;;2.90;1.38;;;12.80;75.10;;;;;;5046114;28;20079;-66
2023/11/08 10:49:10;;;;;;;6.43;1.10;;;12.80;74.80;;;;;;5066963;28;20484;-64
2023/11/08 10:51:42;;;;;;;1.70;1.10;;;12.80;74.40;;;;;;5064949;28;20040;-63
2023/11/08 10:54:08;;;;;;;2.25;0.60;;;12.80;74.40;;;;;;5060326;28;20044;-64
2023/11/08 10:56:36;;;;;;;2.70;1.05;;;12.80;74.70;;;;;;5058628;28;20031;-64
2023/11/08 10:59:09;;;;;;;2.30;1.20;;;12.80;74.90;;;;;;5043024;28;20033;-64
2023/11/08 11:01:37;;;;;;;3.78;1.13;;;12.80;74.70;;;;;;5053134;28;20025;-64
2023/11/08 11:04:11;;;;;;;1.30;0.90;;;12.80;74.90;;;;;;5054603;28;20029;-63
2023/11/08 11:06:38;;;;;;;1.85;1.10;;;12.80;75.00;;;;;;5061650;28;20037;-65
2023/11/08 11:09:10;;;;;;;2.33;0.90;;;12.80;74.50;;;;;;5062125;28;20551;-64
2023/11/08 11:11:42;;;;;;;3.80;1.23;;;12.80;74.80;;;;;;5057617;28;20036;-63
2023/11/08 11:14:47;;;;;;;2.33;1.15;;;12.70;73.90;;;;;;5066156;28;20042;-63
2023/11/08 11:17:21;;;;;;;1.50;1.00;;;12.70;73.70;;;;;;5020549;28;20357;-63
2023/11/08 11:19:49;;;;;;;1.75;1.48;;;12.70;73.70;;;;;;5062011;28;20044;-63
2023/11/08 11:22:18;;;;;;;4.40;1.35;;;12.80;73.80;;;;;;5065740;28;20502;-65
2023/11/08 11:24:45;;;;;;;4.72;1.02;;;13.10;72.80;;;;;;5062552;28;20385;-67
2023/11/08 11:27:34;;;;;;;2.97;1.17;;;13.20;72.50;;;;;;5061691;28;20036;-66
2023/11/08 11:30:18;;;;;;;1.60;1.05;;;13.80;71.20;;;;;;5061415;28;20471;-67
2023/11/08 11:32:48;;;;;;;1.77;0.93;;;14.90;69.80;;;;;;5057163;28;20108;-68
2023/11/08 11:35:17;;;;;;;2.13;1.25;;;15.90;65.90;;;;;;5061447;28;20036;-67
2023/11/08 11:38:06;;;;;;;4.45;1.05;;;16.40;65.30;;;;;;5062322;28;20120;-64
2023/11/08 11:40:35;;;;;;;3.42;1.42;;;16.30;63.70;;;;;;5063094;28;20515;-65
2023/11/08 11:43:01;;;;;;;1.95;1.20;;;15.90;64.40;;;;;;5065096;28;20048;-67
2023/11/08 11:45:30;;;;;;;5.43;1.52;;;15.40;65.10;;;;;;5063363;28;20068;-67
2023/11/08 11:47:56;;;;;;;2.63;1.13;;;14.90;66.50;;;;;;5042607;28;20055;-68
2023/11/08 11:50:23;;;;;;;1.83;1.17;;;14.70;68.00;;;;;;5063062;28;20020;-66
2023/11/08 11:52:50;;;;;;;2.80;1.33;;;14.60;67.90;;;;;;5057752;28;20021;-63
2023/11/08 11:55:19;;;;;;;1.77;1.15;;;14.30;68.30;;;;;;5061874;28;20043;-63
2023/11/08 11:57:45;;;;;;;4.00;1.20;;;14.10;68.40;;;;;;5032674;28;20033;-63
2023/11/08 12:00:13;;;;;;;2.47;1.15;;;13.90;68.90;;;;;;5065523;28;20068;-63
2023/11/08 12:02:38;;;;;;;2.13;0.63;;;13.80;69.80;;;;;;5067714;28;20044;-63
2023/11/08 12:05:06;;;;;;;1.25;0.80;;;13.80;70.00;;;;;;5064973;28;20031;-63
2023/11/08 12:07:32;;;;;;;2.13;0.93;;;13.90;70.00;;;;;;5067503;28;20037;-63
2023/11/08 12:10:07;;;;;;;0.60;0.60;;;14.10;69.20;;;;;;5064841;28;20025;-64
2023/11/08 12:12:37;;;;;;;1.08;0.75;;;14.10;68.90;;;;;;5072131;28;20032;-65
2023/11/08 12:15:22;;;;;;;1.08;0.60;;;14.00;69.40;;;;;;5061462;28;20071;-65
2023/11/08 12:17:53;;;;;;;0.75;0.70;;;14.00;69.80;;;;;;5047921;28;20098;-64
2023/11/08 12:20:21;;;;;;;2.55;1.13;;;13.80;70.00;;;;;;5042580;28;20107;-63
2023/11/08 12:22:48;;;;;;;5.68;0.80;;;13.70;70.30;;;;;;5066084;28;20620;-63
2023/11/08 12:25:13;;;;;;;2.58;0.73;;;13.70;71.10;;;;;;5041031;28;20485;-64
2023/11/08 12:27:39;;;;;;;1.98;0.77;;;13.70;71.00;;;;;;5039681;28;20469;-67
2023/11/08 12:30:05;;;;;;;2.78;0.77;;;13.90;71.20;;;;;;5042455;28;20398;-66
2023/11/08 12:32:31;;;;;;;6.05;1.30;;;13.90;70.20;;;;;;5061442;28;20036;-67
2023/11/08 12:34:58;;;;;;;4.13;1.02;;;13.80;69.60;;;;;;5030281;28;20033;-67
2023/11/08 12:37:24;;;;;;;7.38;1.88;;;13.70;69.70;;;;;;5044413;28;20025;-67
2023/11/08 12:39:50;;;;;;;3.58;1.00;;;13.60;70.20;;;;;;5060589;28;20043;-63
2023/11/08 12:42:16;;;;;;;1.92;0.98;;;13.60;70.50;;;;;;5063308;28;20357;-65
2023/11/08 12:44:47;;;;;;;2.83;0.90;;;13.60;70.80;;;;;;5063227;28;20033;-65
2023/11/08 12:47:13;;;;;;;1.30;0.95;;;13.60;70.80;;;;;;5042424;28;20147;-65
2023/11/08 12:49:39;;;;;;;1.58;1.15;;;13.60;70.70;;;;;;5060937;28;20123;-64